sensor_id;sensor_type;location;lat;lon;timestamp;P1;durP1;ratioP1;P2;durP2;ratioP2
769;SDS011;368;48.698;9.116;2023-05-10T00:02:02;1.80;;;0.90;;
769;SDS011;368;48.698;9.116;2023-05-10T00:04:28;6.70;;;1.00;;
769;SDS011;368;48.698;9.116;2023-05-10T00:06:57;2.10;;;1.03;;
769;SDS011;368;48.698;9.116;2023-05-10T00:09:23;2.30;;;1.20;;
769;SDS011;368;48.698;9.116;2023-05-10T00:11:50;1.30;;;1.00;;
769;SDS011;368;48.698;9.116;2023-05-10T00:14:18;5.50;;;1.43;;
769;SDS011;368;48.698;9.116;2023-05-10T00:16:45;2.33;;;1.00;;
769;SDS011;368;48.698;9.116;2023-05-10T00:19:12;0.80;;;0.57;;
769;SDS011;368;48.698;9.116;2023-05-10T00:21:39;0.50;;;0.40;;
769;SDS011;368;48.698;9.116;2023-05-10T00:24:07;0.43;;;0.40;;
769;SDS011;368;48.698;9.116;2023-05-10T00:26:34;1.03;;;0.70;;
769;SDS011;368;48.698;9.116;2023-05-10T00:29:00;1.03;;;0.70;;
769;SDS011;368;48.698;9.116;2023-05-10T00:31:28;1.23;;;0.40;;
769;SDS011;368;48.698;9.116;2023-05-10T00:33:55;0.60;;;0.27;;
769;SDS011;368;48.698;9.116;2023-05-10T00:36:22;1.63;;;0.40;;
769;SDS011;368;48.698;9.116;2023-05-10T00:38:48;1.23;;;0.30;;
769;SDS011;368;48.698;9.116;2023-05-10T00:41:18;2.00;;;0.50;;
769;SDS011;368;48.698;9.116;2023-05-10T00:43:47;0.83;;;0.37;;
769;SDS011;368;48.698;9.116;2023-05-10T00:46:14;0.50;;;0.30;;
769;SDS011;368;48.698;9.116;2023-05-10T00:48:42;0.70;;;0.63;;
769;SDS011;368;48.698;9.116;2023-05-10T00:51:10;0.97;;;0.70;;
769;SDS011;368;48.698;9.116;2023-05-10T00:53:37;2.10;;;0.30;;
769;SDS011;368;48.698;9.116;2023-05-10T00:56:04;0.67;;;0.27;;
769;SDS011;368;48.698;9.116;2023-05-10T00:58:32;3.20;;;0.43;;
769;SDS011;368;48.698;9.116;2023-05-10T01:01:00;0.50;;;0.30;;
769;SDS011;368;48.698;9.116;2023-05-10T01:03:28;0.30;;;0.20;;
769;SDS011;368;48.698;9.116;2023-05-10T01:05:55;2.30;;;0.40;;
769;SDS011;368;48.698;9.116;2023-05-10T01:08:23;0.30;;;0.20;;
769;SDS011;368;48.698;9.116;2023-05-10T01:10:51;0.90;;;0.50;;
769;SDS011;368;48.698;9.116;2023-05-10T01:13:21;0.73;;;0.50;;
769;SDS011;368;48.698;9.116;2023-05-10T01:16:00;0.40;;;0.30;;
769;SDS011;368;48.698;9.116;2023-05-10T01:18:28;0.50;;;0.40;;
769;SDS011;368;48.698;9.116;2023-05-10T01:20:59;0.40;;;0.23;;
769;SDS011;368;48.698;9.116;2023-05-10T01:23:51;0.40;;;0.30;;
769;SDS011;368;48.698;9.116;2023-05-10T01:26:56;0.40;;;0.20;;
769;SDS011;368;48.698;9.116;2023-05-10T01:29:55;0.70;;;0.33;;
769;SDS011;368;48.698;9.116;2023-05-10T01:32:55;1.37;;;0.20;;
769;SDS011;368;48.698;9.116;2023-05-10T01:35:26;0.40;;;0.27;;
769;SDS011;368;48.698;9.116;2023-05-10T01:37:59;1.00;;;0.30;;
769;SDS011;368;48.698;9.116;2023-05-10T01:40:35;0.97;;;0.40;;
769;SDS011;368;48.698;9.116;2023-05-10T01:43:11;0.40;;;0.20;;
769;SDS011;368;48.698;9.116;2023-05-10T01:45:45;0.40;;;0.40;;
769;SDS011;368;48.698;9.116;2023-05-10T01:48:22;0.60;;;0.30;;
769;SDS011;368;48.698;9.116;2023-05-10T01:50:50;1.20;;;0.67;;
769;SDS011;368;48.698;9.116;2023-05-10T01:53:18;0.30;;;0.20;;
769;SDS011;368;48.698;9.116;2023-05-10T01:55:48;0.40;;;0.30;;
769;SDS011;368;48.698;9.116;2023-05-10T01:58:21;1.57;;;0.30;;
769;SDS011;368;48.698;9.116;2023-05-10T02:00:51;1.70;;;0.30;;
769;SDS011;368;48.698;9.116;2023-05-10T02:03:22;0.80;;;0.40;;
769;SDS011;368;48.698;9.116;2023-05-10T02:05:51;3.27;;;0.50;;
769;SDS011;368;48.698;9.116;2023-05-10T02:08:20;0.70;;;0.40;;
769;SDS011;368;48.698;9.116;2023-05-10T02:10:49;2.60;;;0.53;;
769;SDS011;368;48.698;9.116;2023-05-10T02:13:18;2.27;;;0.60;;
769;SDS011;368;48.698;9.116;2023-05-10T02:15:48;2.13;;;0.60;;
769;SDS011;368;48.698;9.116;2023-05-10T02:18:16;0.70;;;0.30;;
769;SDS011;368;48.698;9.116;2023-05-10T02:20:45;0.50;;;0.40;;
769;SDS011;368;48.698;9.116;2023-05-10T02:23:13;0.47;;;0.30;;
769;SDS011;368;48.698;9.116;2023-05-10T02:25:43;1.20;;;0.50;;
769;SDS011;368;48.698;9.116;2023-05-10T02:28:10;1.93;;;1.03;;
769;SDS011;368;48.698;9.116;2023-05-10T02:30:40;2.67;;;0.50;;
769;SDS011;368;48.698;9.116;2023-05-10T02:33:07;0.50;;;0.40;;
769;SDS011;368;48.698;9.116;2023-05-10T02:35:35;0.90;;;0.53;;
769;SDS011;368;48.698;9.116;2023-05-10T02:38:04;0.40;;;0.30;;
769;SDS011;368;48.698;9.116;2023-05-10T02:40:33;0.60;;;0.50;;
769;SDS011;368;48.698;9.116;2023-05-10T02:43:02;1.17;;;0.50;;
769;SDS011;368;48.698;9.116;2023-05-10T02:45:32;0.90;;;0.57;;
769;SDS011;368;48.698;9.116;2023-05-10T02:48:01;0.77;;;0.70;;
769;SDS011;368;48.698;9.116;2023-05-10T02:50:28;1.63;;;0.83;;
769;SDS011;368;48.698;9.116;2023-05-10T02:53:00;0.60;;;0.60;;
769;SDS011;368;48.698;9.116;2023-05-10T02:55:32;2.40;;;0.63;;
769;SDS011;368;48.698;9.116;2023-05-10T02:58:02;2.90;;;0.50;;
769;SDS011;368;48.698;9.116;2023-05-10T03:00:31;1.00;;;1.00;;
769;SDS011;368;48.698;9.116;2023-05-10T03:02:58;1.83;;;0.73;;
769;SDS011;368;48.698;9.116;2023-05-10T03:05:25;1.20;;;1.00;;
769;SDS011;368;48.698;9.116;2023-05-10T03:07:52;0.73;;;0.73;;
769;SDS011;368;48.698;9.116;2023-05-10T03:10:19;0.70;;;0.60;;
769;SDS011;368;48.698;9.116;2023-05-10T03:12:56;0.80;;;0.80;;
769;SDS011;368;48.698;9.116;2023-05-10T03:15:33;0.97;;;0.90;;
769;SDS011;368;48.698;9.116;2023-05-10T03:18:10;2.03;;;0.70;;
769;SDS011;368;48.698;9.116;2023-05-10T03:20:41;1.50;;;0.80;;
769;SDS011;368;48.698;9.116;2023-05-10T03:23:12;2.17;;;0.90;;
769;SDS011;368;48.698;9.116;2023-05-10T03:25:40;1.93;;;1.00;;
769;SDS011;368;48.698;9.116;2023-05-10T03:28:10;1.10;;;0.90;;
769;SDS011;368;48.698;9.116;2023-05-10T03:30:38;1.37;;;0.90;;
769;SDS011;368;48.698;9.116;2023-05-10T03:33:06;1.43;;;0.80;;
769;SDS011;368;48.698;9.116;2023-05-10T03:35:33;1.00;;;1.00;;
769;SDS011;368;48.698;9.116;2023-05-10T03:38:00;0.90;;;0.80;;
769;SDS011;368;48.698;9.116;2023-05-10T03:40:28;0.83;;;0.83;;
769;SDS011;368;48.698;9.116;2023-05-10T03:42:57;2.00;;;0.70;;
769;SDS011;368;48.698;9.116;2023-05-10T03:45:25;1.23;;;1.00;;
769;SDS011;368;48.698;9.116;2023-05-10T03:47:52;0.93;;;0.87;;
769;SDS011;368;48.698;9.116;2023-05-10T03:50:19;1.20;;;1.00;;
769;SDS011;368;48.698;9.116;2023-05-10T03:52:46;1.00;;;1.00;;
769;SDS011;368;48.698;9.116;2023-05-10T03:55:14;1.53;;;1.30;;
769;SDS011;368;48.698;9.116;2023-05-10T03:57:41;2.13;;;1.13;;
769;SDS011;368;48.698;9.116;2023-05-10T04:00:08;4.50;;;1.20;;
769;SDS011;368;48.698;9.116;2023-05-10T04:02:37;2.10;;;1.03;;
769;SDS011;368;48.698;9.116;2023-05-10T04:05:04;3.87;;;1.40;;
769;SDS011;368;48.698;9.116;2023-05-10T04:07:31;0.90;;;0.90;;
769;SDS011;368;48.698;9.116;2023-05-10T04:09:58;3.37;;;1.20;;
769;SDS011;368;48.698;9.116;2023-05-10T04:12:26;1.80;;;0.90;;
769;SDS011;368;48.698;9.116;2023-05-10T04:14:52;2.07;;;1.00;;
769;SDS011;368;48.698;9.116;2023-05-10T04:17:19;1.30;;;1.20;;
769;SDS011;368;48.698;9.116;2023-05-10T04:19:47;0.90;;;0.83;;
769;SDS011;368;48.698;9.116;2023-05-10T04:22:14;1.00;;;0.97;;
769;SDS011;368;48.698;9.116;2023-05-10T04:24:41;0.80;;;0.80;;
769;SDS011;368;48.698;9.116;2023-05-10T04:27:08;2.83;;;1.20;;
769;SDS011;368;48.698;9.116;2023-05-10T04:29:36;1.00;;;1.00;;
769;SDS011;368;48.698;9.116;2023-05-10T04:32:03;2.50;;;0.83;;
769;SDS011;368;48.698;9.116;2023-05-10T04:34:31;1.80;;;0.97;;
769;SDS011;368;48.698;9.116;2023-05-10T04:37:00;1.50;;;0.93;;
769;SDS011;368;48.698;9.116;2023-05-10T04:39:27;1.27;;;1.17;;
769;SDS011;368;48.698;9.116;2023-05-10T04:41:55;1.20;;;1.07;;
769;SDS011;368;48.698;9.116;2023-05-10T04:44:22;1.30;;;1.17;;
769;SDS011;368;48.698;9.116;2023-05-10T04:46:48;1.17;;;1.07;;
769;SDS011;368;48.698;9.116;2023-05-10T04:49:15;1.10;;;1.03;;
769;SDS011;368;48.698;9.116;2023-05-10T04:51:43;2.73;;;1.40;;
769;SDS011;368;48.698;9.116;2023-05-10T04:54:12;1.27;;;1.10;;
769;SDS011;368;48.698;9.116;2023-05-10T04:56:39;2.23;;;1.20;;
769;SDS011;368;48.698;9.116;2023-05-10T04:59:05;1.60;;;1.20;;
769;SDS011;368;48.698;9.116;2023-05-10T05:01:32;3.70;;;1.67;;
769;SDS011;368;48.698;9.116;2023-05-10T05:03:59;2.07;;;0.80;;
769;SDS011;368;48.698;9.116;2023-05-10T05:06:26;1.47;;;1.20;;
769;SDS011;368;48.698;9.116;2023-05-10T05:08:53;1.10;;;1.00;;
769;SDS011;368;48.698;9.116;2023-05-10T05:11:21;1.20;;;1.10;;
769;SDS011;368;48.698;9.116;2023-05-10T05:13:48;0.87;;;0.87;;
769;SDS011;368;48.698;9.116;2023-05-10T05:16:14;1.27;;;1.17;;
769;SDS011;368;48.698;9.116;2023-05-10T05:18:41;1.90;;;1.23;;
769;SDS011;368;48.698;9.116;2023-05-10T05:21:14;1.13;;;1.03;;
769;SDS011;368;48.698;9.116;2023-05-10T05:23:42;2.63;;;0.93;;
769;SDS011;368;48.698;9.116;2023-05-10T05:26:09;1.23;;;1.00;;
769;SDS011;368;48.698;9.116;2023-05-10T05:28:38;1.07;;;1.03;;
769;SDS011;368;48.698;9.116;2023-05-10T05:31:05;3.23;;;1.20;;
769;SDS011;368;48.698;9.116;2023-05-10T05:33:33;1.60;;;1.40;;
769;SDS011;368;48.698;9.116;2023-05-10T05:36:00;1.30;;;1.20;;
769;SDS011;368;48.698;9.116;2023-05-10T05:38:28;1.93;;;1.27;;
769;SDS011;368;48.698;9.116;2023-05-10T05:40:55;1.13;;;1.00;;
769;SDS011;368;48.698;9.116;2023-05-10T05:43:22;1.50;;;1.30;;
769;SDS011;368;48.698;9.116;2023-05-10T05:45:51;1.80;;;1.03;;
769;SDS011;368;48.698;9.116;2023-05-10T05:48:18;1.17;;;1.07;;
769;SDS011;368;48.698;9.116;2023-05-10T05:50:45;1.70;;;0.90;;
769;SDS011;368;48.698;9.116;2023-05-10T05:53:14;1.50;;;1.20;;
769;SDS011;368;48.698;9.116;2023-05-10T05:55:50;1.70;;;1.10;;
769;SDS011;368;48.698;9.116;2023-05-10T05:58:19;1.30;;;1.20;;
769;SDS011;368;48.698;9.116;2023-05-10T06:00:47;4.00;;;1.37;;
769;SDS011;368;48.698;9.116;2023-05-10T06:03:15;1.13;;;1.03;;
769;SDS011;368;48.698;9.116;2023-05-10T06:05:42;1.23;;;1.10;;
769;SDS011;368;48.698;9.116;2023-05-10T06:08:10;2.43;;;1.50;;
769;SDS011;368;48.698;9.116;2023-05-10T06:10:37;1.23;;;1.13;;
769;SDS011;368;48.698;9.116;2023-05-10T06:13:04;1.10;;;1.00;;
769;SDS011;368;48.698;9.116;2023-05-10T06:15:32;1.17;;;1.10;;
769;SDS011;368;48.698;9.116;2023-05-10T06:17:59;1.70;;;1.53;;
769;SDS011;368;48.698;9.116;2023-05-10T06:20:29;0.93;;;0.93;;
769;SDS011;368;48.698;9.116;2023-05-10T06:22:57;1.10;;;1.03;;
769;SDS011;368;48.698;9.116;2023-05-10T06:25:25;1.40;;;1.30;;
769;SDS011;368;48.698;9.116;2023-05-10T06:27:52;1.83;;;1.40;;
769;SDS011;368;48.698;9.116;2023-05-10T06:30:22;1.20;;;1.10;;
769;SDS011;368;48.698;9.116;2023-05-10T06:32:53;2.50;;;1.27;;
769;SDS011;368;48.698;9.116;2023-05-10T06:35:22;2.30;;;1.37;;
769;SDS011;368;48.698;9.116;2023-05-10T06:37:50;4.03;;;1.30;;
769;SDS011;368;48.698;9.116;2023-05-10T06:40:17;1.43;;;1.27;;
769;SDS011;368;48.698;9.116;2023-05-10T06:42:44;2.47;;;1.40;;
769;SDS011;368;48.698;9.116;2023-05-10T06:45:11;1.20;;;1.10;;
769;SDS011;368;48.698;9.116;2023-05-10T06:47:40;3.53;;;1.70;;
769;SDS011;368;48.698;9.116;2023-05-10T06:50:09;3.37;;;1.60;;
769;SDS011;368;48.698;9.116;2023-05-10T06:52:37;2.03;;;1.33;;
769;SDS011;368;48.698;9.116;2023-05-10T06:55:06;2.43;;;1.60;;
769;SDS011;368;48.698;9.116;2023-05-10T06:57:33;0.93;;;0.80;;
769;SDS011;368;48.698;9.116;2023-05-10T07:00:01;1.70;;;1.20;;
769;SDS011;368;48.698;9.116;2023-05-10T07:02:30;1.43;;;1.33;;
769;SDS011;368;48.698;9.116;2023-05-10T07:04:57;3.70;;;1.43;;
769;SDS011;368;48.698;9.116;2023-05-10T07:07:27;5.23;;;1.77;;
769;SDS011;368;48.698;9.116;2023-05-10T07:12:30;1.70;;;1.60;;
769;SDS011;368;48.698;9.116;2023-05-10T07:14:58;3.40;;;1.70;;
769;SDS011;368;48.698;9.116;2023-05-10T07:17:25;3.77;;;1.27;;
769;SDS011;368;48.698;9.116;2023-05-10T07:19:52;2.33;;;1.57;;
769;SDS011;368;48.698;9.116;2023-05-10T07:22:19;1.53;;;1.33;;
769;SDS011;368;48.698;9.116;2023-05-10T07:24:47;4.50;;;1.70;;
769;SDS011;368;48.698;9.116;2023-05-10T07:27:13;1.63;;;1.53;;
769;SDS011;368;48.698;9.116;2023-05-10T07:29:42;1.83;;;1.50;;
769;SDS011;368;48.698;9.116;2023-05-10T07:32:10;1.50;;;1.40;;
769;SDS011;368;48.698;9.116;2023-05-10T07:34:36;1.33;;;1.23;;
769;SDS011;368;48.698;9.116;2023-05-10T07:37:03;1.87;;;1.20;;
769;SDS011;368;48.698;9.116;2023-05-10T07:39:32;2.83;;;1.40;;
769;SDS011;368;48.698;9.116;2023-05-10T07:41:58;2.23;;;1.47;;
769;SDS011;368;48.698;9.116;2023-05-10T07:44:25;3.87;;;1.70;;
769;SDS011;368;48.698;9.116;2023-05-10T07:46:53;4.70;;;1.30;;
769;SDS011;368;48.698;9.116;2023-05-10T07:49:20;1.50;;;1.40;;
769;SDS011;368;48.698;9.116;2023-05-10T07:51:49;1.80;;;1.17;;
769;SDS011;368;48.698;9.116;2023-05-10T07:54:16;5.80;;;1.60;;
769;SDS011;368;48.698;9.116;2023-05-10T07:56:42;1.40;;;1.23;;
769;SDS011;368;48.698;9.116;2023-05-10T07:59:14;1.60;;;1.10;;
769;SDS011;368;48.698;9.116;2023-05-10T08:01:41;1.37;;;0.90;;
769;SDS011;368;48.698;9.116;2023-05-10T08:04:09;1.67;;;1.00;;
769;SDS011;368;48.698;9.116;2023-05-10T08:06:36;4.53;;;1.20;;
769;SDS011;368;48.698;9.116;2023-05-10T08:09:03;1.00;;;0.90;;
769;SDS011;368;48.698;9.116;2023-05-10T08:11:30;1.70;;;0.97;;
769;SDS011;368;48.698;9.116;2023-05-10T08:13:58;1.30;;;1.10;;
769;SDS011;368;48.698;9.116;2023-05-10T08:16:25;1.17;;;0.97;;
769;SDS011;368;48.698;9.116;2023-05-10T08:18:53;1.90;;;1.30;;
769;SDS011;368;48.698;9.116;2023-05-10T08:21:21;1.03;;;0.90;;
769;SDS011;368;48.698;9.116;2023-05-10T08:23:49;1.10;;;1.00;;
769;SDS011;368;48.698;9.116;2023-05-10T08:26:17;1.07;;;0.70;;
769;SDS011;368;48.698;9.116;2023-05-10T08:28:46;1.30;;;0.90;;
769;SDS011;368;48.698;9.116;2023-05-10T08:31:13;1.20;;;0.50;;
769;SDS011;368;48.698;9.116;2023-05-10T08:33:41;2.67;;;0.90;;
769;SDS011;368;48.698;9.116;2023-05-10T08:36:07;2.30;;;1.20;;
769;SDS011;368;48.698;9.116;2023-05-10T08:38:36;1.93;;;0.90;;
769;SDS011;368;48.698;9.116;2023-05-10T08:41:05;0.83;;;0.70;;
769;SDS011;368;48.698;9.116;2023-05-10T08:43:32;0.70;;;0.60;;
769;SDS011;368;48.698;9.116;2023-05-10T08:46:03;1.27;;;0.90;;
769;SDS011;368;48.698;9.116;2023-05-10T08:48:34;0.70;;;0.60;;
769;SDS011;368;48.698;9.116;2023-05-10T08:51:01;0.70;;;0.60;;
769;SDS011;368;48.698;9.116;2023-05-10T08:53:29;3.80;;;1.43;;
769;SDS011;368;48.698;9.116;2023-05-10T08:56:02;2.13;;;0.80;;
769;SDS011;368;48.698;9.116;2023-05-10T08:58:30;1.43;;;1.00;;
769;SDS011;368;48.698;9.116;2023-05-10T09:00:57;0.50;;;0.50;;
769;SDS011;368;48.698;9.116;2023-05-10T09:03:25;1.37;;;0.70;;
769;SDS011;368;48.698;9.116;2023-05-10T09:05:52;1.17;;;0.70;;
769;SDS011;368;48.698;9.116;2023-05-10T09:08:20;0.50;;;0.50;;
769;SDS011;368;48.698;9.116;2023-05-10T09:10:50;1.03;;;0.70;;
769;SDS011;368;48.698;9.116;2023-05-10T09:13:19;0.80;;;0.60;;
769;SDS011;368;48.698;9.116;2023-05-10T09:15:47;1.37;;;0.70;;
769;SDS011;368;48.698;9.116;2023-05-10T09:18:14;3.53;;;0.60;;
769;SDS011;368;48.698;9.116;2023-05-10T09:20:41;1.13;;;0.60;;
769;SDS011;368;48.698;9.116;2023-05-10T09:23:08;1.03;;;0.50;;
769;SDS011;368;48.698;9.116;2023-05-10T09:25:35;1.23;;;0.50;;
769;SDS011;368;48.698;9.116;2023-05-10T09:28:05;0.70;;;0.60;;
769;SDS011;368;48.698;9.116;2023-05-10T09:30:34;0.60;;;0.40;;
769;SDS011;368;48.698;9.116;2023-05-10T09:33:01;1.93;;;0.80;;
769;SDS011;368;48.698;9.116;2023-05-10T09:35:29;0.63;;;0.40;;
769;SDS011;368;48.698;9.116;2023-05-10T09:37:59;1.90;;;0.50;;
769;SDS011;368;48.698;9.116;2023-05-10T09:40:27;0.90;;;0.50;;
769;SDS011;368;48.698;9.116;2023-05-10T09:42:56;1.00;;;0.80;;
769;SDS011;368;48.698;9.116;2023-05-10T09:45:24;1.03;;;0.60;;
769;SDS011;368;48.698;9.116;2023-05-10T09:47:54;1.30;;;0.53;;
769;SDS011;368;48.698;9.116;2023-05-10T09:50:22;1.07;;;0.50;;
769;SDS011;368;48.698;9.116;2023-05-10T09:52:51;3.17;;;0.77;;
769;SDS011;368;48.698;9.116;2023-05-10T09:55:20;2.10;;;0.83;;
769;SDS011;368;48.698;9.116;2023-05-10T09:57:48;0.87;;;0.57;;
769;SDS011;368;48.698;9.116;2023-05-10T10:00:16;1.10;;;0.50;;
769;SDS011;368;48.698;9.116;2023-05-10T10:02:46;2.63;;;0.50;;
769;SDS011;368;48.698;9.116;2023-05-10T10:05:15;3.23;;;0.60;;
769;SDS011;368;48.698;9.116;2023-05-10T10:07:42;1.07;;;0.40;;
769;SDS011;368;48.698;9.116;2023-05-10T10:10:10;2.60;;;0.60;;
769;SDS011;368;48.698;9.116;2023-05-10T10:12:38;0.70;;;0.50;;
769;SDS011;368;48.698;9.116;2023-05-10T10:15:07;0.90;;;0.63;;
769;SDS011;368;48.698;9.116;2023-05-10T10:17:35;0.40;;;0.30;;
769;SDS011;368;48.698;9.116;2023-05-10T10:20:04;0.50;;;0.40;;
769;SDS011;368;48.698;9.116;2023-05-10T10:22:36;0.67;;;0.40;;
769;SDS011;368;48.698;9.116;2023-05-10T10:25:04;1.57;;;0.40;;
769;SDS011;368;48.698;9.116;2023-05-10T10:27:35;1.70;;;0.40;;
769;SDS011;368;48.698;9.116;2023-05-10T10:30:13;0.90;;;0.43;;
769;SDS011;368;48.698;9.116;2023-05-10T10:35:39;1.07;;;0.50;;
769;SDS011;368;48.698;9.116;2023-05-10T10:38:09;1.23;;;0.40;;
769;SDS011;368;48.698;9.116;2023-05-10T10:40:35;4.80;;;0.50;;
769;SDS011;368;48.698;9.116;2023-05-10T10:43:21;0.90;;;0.40;;
769;SDS011;368;48.698;9.116;2023-05-10T10:46:09;0.67;;;0.50;;
769;SDS011;368;48.698;9.116;2023-05-10T10:48:38;1.17;;;0.63;;
769;SDS011;368;48.698;9.116;2023-05-10T10:51:05;1.60;;;0.70;;
769;SDS011;368;48.698;9.116;2023-05-10T10:53:33;0.93;;;0.60;;
769;SDS011;368;48.698;9.116;2023-05-10T10:56:07;1.43;;;0.50;;
769;SDS011;368;48.698;9.116;2023-05-10T10:58:35;1.80;;;0.80;;
769;SDS011;368;48.698;9.116;2023-05-10T11:01:10;1.20;;;0.90;;
769;SDS011;368;48.698;9.116;2023-05-10T11:03:39;1.17;;;0.67;;
769;SDS011;368;48.698;9.116;2023-05-10T11:06:06;2.30;;;0.60;;
769;SDS011;368;48.698;9.116;2023-05-10T11:08:41;1.30;;;0.80;;
769;SDS011;368;48.698;9.116;2023-05-10T11:11:14;2.00;;;0.73;;
769;SDS011;368;48.698;9.116;2023-05-10T11:13:42;3.77;;;0.60;;
769;SDS011;368;48.698;9.116;2023-05-10T11:16:11;1.30;;;0.50;;
769;SDS011;368;48.698;9.116;2023-05-10T11:18:39;1.70;;;0.60;;
769;SDS011;368;48.698;9.116;2023-05-10T11:21:08;1.10;;;0.80;;
769;SDS011;368;48.698;9.116;2023-05-10T11:23:49;2.90;;;0.70;;
769;SDS011;368;48.698;9.116;2023-05-10T11:26:18;1.23;;;0.80;;
769;SDS011;368;48.698;9.116;2023-05-10T11:28:48;1.43;;;0.50;;
769;SDS011;368;48.698;9.116;2023-05-10T11:31:15;1.00;;;0.80;;
769;SDS011;368;48.698;9.116;2023-05-10T11:33:43;1.33;;;0.60;;
769;SDS011;368;48.698;9.116;2023-05-10T11:36:11;0.83;;;0.70;;
769;SDS011;368;48.698;9.116;2023-05-10T11:38:38;0.70;;;0.40;;
769;SDS011;368;48.698;9.116;2023-05-10T11:41:06;0.83;;;0.50;;
769;SDS011;368;48.698;9.116;2023-05-10T11:43:37;1.50;;;0.90;;
769;SDS011;368;48.698;9.116;2023-05-10T11:46:05;1.40;;;0.80;;
769;SDS011;368;48.698;9.116;2023-05-10T11:48:33;1.37;;;0.80;;
769;SDS011;368;48.698;9.116;2023-05-10T11:51:00;0.70;;;0.70;;
769;SDS011;368;48.698;9.116;2023-05-10T11:53:29;2.87;;;0.60;;
769;SDS011;368;48.698;9.116;2023-05-10T11:56:03;1.10;;;0.57;;
769;SDS011;368;48.698;9.116;2023-05-10T11:58:31;1.00;;;0.80;;
769;SDS011;368;48.698;9.116;2023-05-10T12:00:59;1.20;;;0.70;;
769;SDS011;368;48.698;9.116;2023-05-10T12:03:26;1.37;;;0.73;;
769;SDS011;368;48.698;9.116;2023-05-10T12:05:54;1.90;;;0.87;;
769;SDS011;368;48.698;9.116;2023-05-10T12:08:23;1.70;;;0.93;;
769;SDS011;368;48.698;9.116;2023-05-10T12:10:50;2.43;;;0.90;;
769;SDS011;368;48.698;9.116;2023-05-10T12:13:18;2.40;;;0.90;;
769;SDS011;368;48.698;9.116;2023-05-10T12:15:47;0.90;;;0.50;;
769;SDS011;368;48.698;9.116;2023-05-10T12:18:14;1.53;;;0.60;;
769;SDS011;368;48.698;9.116;2023-05-10T12:20:48;2.10;;;0.80;;
769;SDS011;368;48.698;9.116;2023-05-10T12:23:18;0.97;;;0.80;;
769;SDS011;368;48.698;9.116;2023-05-10T12:25:46;1.87;;;0.90;;
769;SDS011;368;48.698;9.116;2023-05-10T12:28:13;1.30;;;0.70;;
769;SDS011;368;48.698;9.116;2023-05-10T12:30:40;1.03;;;0.50;;
769;SDS011;368;48.698;9.116;2023-05-10T12:33:09;0.70;;;0.70;;
769;SDS011;368;48.698;9.116;2023-05-10T12:35:44;2.40;;;1.17;;
769;SDS011;368;48.698;9.116;2023-05-10T12:38:24;1.07;;;0.77;;
769;SDS011;368;48.698;9.116;2023-05-10T12:40:55;1.50;;;1.00;;
769;SDS011;368;48.698;9.116;2023-05-10T12:43:22;2.00;;;0.80;;
769;SDS011;368;48.698;9.116;2023-05-10T12:45:49;0.70;;;0.63;;
769;SDS011;368;48.698;9.116;2023-05-10T12:48:18;1.50;;;0.67;;
769;SDS011;368;48.698;9.116;2023-05-10T12:50:46;2.67;;;1.00;;
769;SDS011;368;48.698;9.116;2023-05-10T12:53:14;1.33;;;0.60;;
769;SDS011;368;48.698;9.116;2023-05-10T12:55:41;1.90;;;1.10;;
769;SDS011;368;48.698;9.116;2023-05-10T12:58:08;3.70;;;0.83;;
769;SDS011;368;48.698;9.116;2023-05-10T13:00:35;1.27;;;0.70;;
769;SDS011;368;48.698;9.116;2023-05-10T13:03:03;4.40;;;1.00;;
769;SDS011;368;48.698;9.116;2023-05-10T13:05:31;1.13;;;0.80;;
769;SDS011;368;48.698;9.116;2023-05-10T13:07:58;1.73;;;0.90;;
769;SDS011;368;48.698;9.116;2023-05-10T13:10:25;1.53;;;0.67;;
769;SDS011;368;48.698;9.116;2023-05-10T13:12:53;1.90;;;0.80;;
769;SDS011;368;48.698;9.116;2023-05-10T13:15:20;2.10;;;0.90;;
769;SDS011;368;48.698;9.116;2023-05-10T13:17:47;1.43;;;0.80;;
769;SDS011;368;48.698;9.116;2023-05-10T13:20:14;2.20;;;1.13;;
769;SDS011;368;48.698;9.116;2023-05-10T13:22:46;2.30;;;0.70;;
769;SDS011;368;48.698;9.116;2023-05-10T13:25:14;3.63;;;1.10;;
769;SDS011;368;48.698;9.116;2023-05-10T13:27:42;2.37;;;0.97;;
769;SDS011;368;48.698;9.116;2023-05-10T13:30:09;2.00;;;0.80;;
769;SDS011;368;48.698;9.116;2023-05-10T13:32:37;1.80;;;1.47;;
769;SDS011;368;48.698;9.116;2023-05-10T13:35:05;2.93;;;1.10;;
769;SDS011;368;48.698;9.116;2023-05-10T13:37:32;2.90;;;1.00;;
769;SDS011;368;48.698;9.116;2023-05-10T13:40:01;1.10;;;0.50;;
769;SDS011;368;48.698;9.116;2023-05-10T13:42:29;3.70;;;1.10;;
769;SDS011;368;48.698;9.116;2023-05-10T13:44:56;3.93;;;1.40;;
769;SDS011;368;48.698;9.116;2023-05-10T13:47:23;1.87;;;1.17;;
769;SDS011;368;48.698;9.116;2023-05-10T13:49:50;1.30;;;0.70;;
769;SDS011;368;48.698;9.116;2023-05-10T13:52:17;2.53;;;1.00;;
769;SDS011;368;48.698;9.116;2023-05-10T13:54:44;2.27;;;1.10;;
769;SDS011;368;48.698;9.116;2023-05-10T13:57:12;2.20;;;1.10;;
769;SDS011;368;48.698;9.116;2023-05-10T13:59:39;1.93;;;0.90;;
769;SDS011;368;48.698;9.116;2023-05-10T14:02:05;1.43;;;0.90;;
769;SDS011;368;48.698;9.116;2023-05-10T14:04:32;1.50;;;0.90;;
769;SDS011;368;48.698;9.116;2023-05-10T14:07:04;3.13;;;0.80;;
769;SDS011;368;48.698;9.116;2023-05-10T14:09:31;1.60;;;1.00;;
769;SDS011;368;48.698;9.116;2023-05-10T14:11:58;1.80;;;1.17;;
769;SDS011;368;48.698;9.116;2023-05-10T14:14:28;5.57;;;1.00;;
769;SDS011;368;48.698;9.116;2023-05-10T14:16:55;4.23;;;1.30;;
769;SDS011;368;48.698;9.116;2023-05-10T14:19:22;1.37;;;0.70;;
769;SDS011;368;48.698;9.116;2023-05-10T14:21:48;2.30;;;0.80;;
769;SDS011;368;48.698;9.116;2023-05-10T14:24:17;3.07;;;1.00;;
769;SDS011;368;48.698;9.116;2023-05-10T14:26:43;2.83;;;0.90;;
769;SDS011;368;48.698;9.116;2023-05-10T14:29:10;2.10;;;0.93;;
769;SDS011;368;48.698;9.116;2023-05-10T14:31:39;5.23;;;0.83;;
769;SDS011;368;48.698;9.116;2023-05-10T14:34:07;1.63;;;0.70;;
769;SDS011;368;48.698;9.116;2023-05-10T14:36:34;1.63;;;0.70;;
769;SDS011;368;48.698;9.116;2023-05-10T14:39:01;1.90;;;0.50;;
769;SDS011;368;48.698;9.116;2023-05-10T14:41:30;2.00;;;1.20;;
769;SDS011;368;48.698;9.116;2023-05-10T14:43:57;1.63;;;0.57;;
769;SDS011;368;48.698;9.116;2023-05-10T14:46:24;2.80;;;0.80;;
769;SDS011;368;48.698;9.116;2023-05-10T14:48:52;1.00;;;0.70;;
769;SDS011;368;48.698;9.116;2023-05-10T14:51:21;1.60;;;0.90;;
769;SDS011;368;48.698;9.116;2023-05-10T14:53:51;1.93;;;0.93;;
769;SDS011;368;48.698;9.116;2023-05-10T14:56:17;1.10;;;0.77;;
769;SDS011;368;48.698;9.116;2023-05-10T14:58:45;1.47;;;0.80;;
769;SDS011;368;48.698;9.116;2023-05-10T15:01:13;2.80;;;0.93;;
769;SDS011;368;48.698;9.116;2023-05-10T15:03:40;1.43;;;1.10;;
769;SDS011;368;48.698;9.116;2023-05-10T15:06:09;1.30;;;0.67;;
769;SDS011;368;48.698;9.116;2023-05-10T15:08:36;1.90;;;1.00;;
769;SDS011;368;48.698;9.116;2023-05-10T15:11:03;3.70;;;1.03;;
769;SDS011;368;48.698;9.116;2023-05-10T15:13:31;1.43;;;0.97;;
769;SDS011;368;48.698;9.116;2023-05-10T15:15:58;0.97;;;0.77;;
769;SDS011;368;48.698;9.116;2023-05-10T15:18:25;1.53;;;0.73;;
769;SDS011;368;48.698;9.116;2023-05-10T15:20:52;2.63;;;0.87;;
769;SDS011;368;48.698;9.116;2023-05-10T15:23:20;3.50;;;0.90;;
769;SDS011;368;48.698;9.116;2023-05-10T15:25:47;1.50;;;0.60;;
769;SDS011;368;48.698;9.116;2023-05-10T15:28:14;2.40;;;0.93;;
769;SDS011;368;48.698;9.116;2023-05-10T15:30:41;2.20;;;0.83;;
769;SDS011;368;48.698;9.116;2023-05-10T15:33:08;2.40;;;1.00;;
769;SDS011;368;48.698;9.116;2023-05-10T15:35:35;0.80;;;0.80;;
769;SDS011;368;48.698;9.116;2023-05-10T15:38:03;1.83;;;1.00;;
769;SDS011;368;48.698;9.116;2023-05-10T15:40:32;1.90;;;0.70;;
769;SDS011;368;48.698;9.116;2023-05-10T15:43:00;2.40;;;1.10;;
769;SDS011;368;48.698;9.116;2023-05-10T15:45:27;2.03;;;0.80;;
769;SDS011;368;48.698;9.116;2023-05-10T15:47:54;1.57;;;0.90;;
769;SDS011;368;48.698;9.116;2023-05-10T15:50:22;1.23;;;0.80;;
769;SDS011;368;48.698;9.116;2023-05-10T15:52:48;1.10;;;0.60;;
769;SDS011;368;48.698;9.116;2023-05-10T15:55:15;1.57;;;1.00;;
769;SDS011;368;48.698;9.116;2023-05-10T15:57:44;2.53;;;0.87;;
769;SDS011;368;48.698;9.116;2023-05-10T16:00:11;1.63;;;0.80;;